createdAt,value
2019-05-25T00:00:33.957Z,99812.53
2019-05-25T00:03:05.982Z,99812.26
2019-05-25T00:05:38.456Z,99811.66
2019-05-25T00:08:10.869Z,99809.47
2019-05-25T00:10:42.842Z,99803.52
2019-05-25T00:13:15.209Z,99802.77
2019-05-25T00:15:47.813Z,99793.89
2019-05-25T00:18:20.296Z,99791.22
2019-05-25T00:20:53.198Z,99787.61
2019-05-25T00:23:26.010Z,99786.80
2019-05-25T00:25:58.658Z,99782.22
2019-05-25T00:28:30.767Z,99778.06
2019-05-25T00:31:02.932Z,99773.72
2019-05-25T00:33:35.879Z,99772.96
2019-05-25T00:36:08.515Z,99772.73
2019-05-25T00:38:41.205Z,99768.37
2019-05-25T00:41:13.747Z,99765.45
2019-05-25T00:43:47.316Z,99768.06
2019-05-25T00:46:19.795Z,99772.56
2019-05-25T00:48:52.612Z,99775.21
2019-05-25T00:51:25.103Z,99773.05
2019-05-25T00:53:57.080Z,99770.11
2019-05-25T00:56:29.318Z,99774.61
2019-05-25T00:59:01.983Z,99770.84
2019-05-25T01:01:34.471Z,99767.53
2019-05-25T01:04:07.488Z,99766.78
2019-05-25T01:06:40.052Z,99764.98
2019-05-25T01:09:11.930Z,99764.16
2019-05-25T01:11:44.062Z,99764.08
2019-05-25T01:14:16.959Z,99764.01
2019-05-25T01:16:49.356Z,99758.13
2019-05-25T01:19:22.323Z,99758.44
2019-05-25T01:21:54.988Z,99751.23
2019-05-25T01:24:42.881Z,99746.27
2019-05-25T01:27:01.987Z,99750.86
2019-05-25T01:29:34.616Z,99743.94
2019-05-25T01:32:06.997Z,99750.77
2019-05-25T01:34:39.962Z,99748.59
2019-05-25T01:37:12.601Z,99749.03
2019-05-25T01:39:44.489Z,99748.45
2019-05-25T01:42:16.731Z,99751.00
2019-05-25T01:44:49.555Z,99751.52
2019-05-25T01:47:21.984Z,99753.03
2019-05-25T01:49:54.777Z,99756.92
2019-05-25T01:52:27.251Z,99754.16
2019-05-25T01:55:00.606Z,99760.85
2019-05-25T01:57:33.257Z,99755.21
2019-05-25T02:00:07.480Z,99760.31
2019-05-25T02:02:40.418Z,99760.91
2019-05-25T02:05:13.311Z,99755.80
2019-05-25T02:07:45.888Z,99755.80
2019-05-25T02:10:18.493Z,99755.42
2019-05-25T02:12:51.140Z,99756.03
2019-05-25T02:15:22.945Z,99761.61
2019-05-25T02:17:55.161Z,99762.05
2019-05-25T02:20:27.818Z,99763.93
2019-05-25T02:23:00.315Z,99771.39
2019-05-25T02:25:33.059Z,99766.56
2019-05-25T02:28:05.828Z,99764.17
2019-05-25T02:30:38.291Z,99767.09
2019-05-25T02:33:11.232Z,99763.86
2019-05-25T02:35:43.822Z,99759.71
2019-05-25T02:38:17.270Z,99756.55
2019-05-25T02:40:49.844Z,99756.02
2019-05-25T02:43:22.526Z,99756.02
2019-05-25T02:45:55.156Z,99759.00
2019-05-25T02:48:27.828Z,99771.70
2019-05-25T02:51:00.154Z,99774.91
2019-05-25T02:53:32.918Z,99773.69
2019-05-25T02:56:05.425Z,99772.48
2019-05-25T02:58:38.499Z,99773.52
2019-05-25T03:01:10.925Z,99772.97
2019-05-25T03:03:43.622Z,99776.09
2019-05-25T03:06:18.442Z,99770.77
2019-05-25T03:08:51.007Z,99768.46
2019-05-25T03:11:22.799Z,99775.60
2019-05-25T03:13:55.839Z,99776.77
2019-05-25T03:16:28.535Z,99775.59
2019-05-25T03:19:01.106Z,99775.08
2019-05-25T03:21:33.103Z,99775.44
2019-05-25T03:24:06.480Z,99779.30
2019-05-25T03:26:39.558Z,99769.83
2019-05-25T03:29:11.935Z,99769.02
2019-05-25T03:31:44.860Z,99773.84
2019-05-25T03:34:17.185Z,99777.91
2019-05-25T03:36:49.815Z,99782.27
2019-05-25T03:39:22.197Z,99758.07
2019-05-25T03:41:55.199Z,99781.08
2019-05-25T03:44:30.769Z,99777.12
2019-05-25T03:47:03.610Z,99780.42
2019-05-25T03:49:36.033Z,99785.41
2019-05-25T03:52:08.729Z,99783.60
2019-05-25T03:54:41.092Z,99780.95
2019-05-25T03:57:14.274Z,99771.52
2019-05-25T03:59:47.118Z,99780.55
2019-05-25T04:02:19.785Z,99782.66
2019-05-25T04:04:52.520Z,99772.72
2019-05-25T04:07:25.222Z,99771.36
2019-05-25T04:09:57.580Z,99765.81
2019-05-25T04:12:30.258Z,99767.45
2019-05-25T04:15:03.336Z,99766.81
2019-05-25T04:17:35.760Z,99769.45
2019-05-25T04:20:09.415Z,99773.91
2019-05-25T04:22:41.698Z,99773.83
2019-05-25T04:25:15.586Z,99769.66
2019-05-25T04:27:48.418Z,99762.65
2019-05-25T04:30:21.529Z,99767.36
2019-05-25T04:32:53.941Z,99777.91
2019-05-25T04:35:26.435Z,99774.63
2019-05-25T04:37:59.745Z,99768.62
2019-05-25T04:40:32.595Z,99772.10
2019-05-25T04:43:05.271Z,99767.35
2019-05-25T04:45:37.999Z,99767.39
2019-05-25T04:48:10.330Z,99766.29
2019-05-25T04:50:42.837Z,99755.78
2019-05-25T04:53:15.294Z,99761.70
2019-05-25T04:55:48.201Z,99758.59
2019-05-25T04:58:20.921Z,99758.72
2019-05-25T05:00:53.855Z,99767.92
2019-05-25T05:03:26.521Z,99781.48
2019-05-25T05:05:59.440Z,99785.16
2019-05-25T05:08:35.628Z,99801.22
2019-05-25T05:11:08.402Z,99823.03
2019-05-25T05:13:43.602Z,99836.55
2019-05-25T05:16:16.752Z,99849.23
2019-05-25T05:18:50.543Z,99849.60
2019-05-25T05:21:23.933Z,99841.30
2019-05-25T05:24:06.150Z,99839.33
2019-05-25T05:26:54.824Z,99837.11
2019-05-25T05:29:16.255Z,99834.00
2019-05-25T05:31:48.827Z,99811.37
2019-05-25T05:34:21.445Z,99807.62
2019-05-25T05:36:54.702Z,99815.52
2019-05-25T05:39:28.487Z,99822.23
2019-05-25T05:42:02.872Z,99814.36
2019-05-25T05:44:37.088Z,99826.95
2019-05-25T05:47:11.649Z,99838.25
2019-05-25T05:49:45.532Z,99840.75
2019-05-25T05:52:20.632Z,99846.75
2019-05-25T05:54:54.297Z,99850.55
2019-05-25T05:57:27.142Z,99854.02
2019-05-25T05:59:59.770Z,99859.41
2019-05-25T06:02:32.457Z,99877.41
2019-05-25T06:05:05.650Z,99873.58
2019-05-25T06:07:38.205Z,99871.03
2019-05-25T06:10:10.645Z,99842.84
2019-05-25T06:12:43.159Z,99826.81
2019-05-25T06:15:15.850Z,99821.08
2019-05-25T06:17:48.652Z,99805.89
2019-05-25T06:20:21.347Z,99804.87
2019-05-25T06:22:53.995Z,99813.94
2019-05-25T06:25:26.553Z,99811.80
2019-05-25T06:27:59.349Z,99814.16
2019-05-25T06:30:31.881Z,99822.96
2019-05-25T06:33:04.549Z,99824.27
2019-05-25T06:35:37.098Z,99831.05
2019-05-25T06:38:10.025Z,99840.85
2019-05-25T06:40:44.082Z,99832.55
2019-05-25T06:43:16.735Z,99827.39
2019-05-25T06:45:49.154Z,99821.67
2019-05-25T06:48:21.972Z,99809.00
2019-05-25T06:50:54.690Z,99822.70
2019-05-25T06:53:27.335Z,99826.08
2019-05-25T06:55:59.871Z,99830.36
2019-05-25T06:58:32.345Z,99833.50
2019-05-25T07:01:05.104Z,99837.97
2019-05-25T07:03:37.774Z,99839.61
2019-05-25T07:06:10.487Z,99839.77
2019-05-25T07:08:42.921Z,99837.78
2019-05-25T07:11:15.555Z,99837.98
2019-05-25T07:13:48.190Z,99837.50
2019-05-25T07:16:20.892Z,99835.27
2019-05-25T07:18:53.757Z,99831.32
2019-05-25T07:21:26.761Z,99831.42
2019-05-25T07:23:59.549Z,99820.92
2019-05-25T07:26:32.101Z,99820.66
2019-05-25T07:29:04.892Z,99818.82
2019-05-25T07:31:37.441Z,99814.48
2019-05-25T07:34:10.163Z,99819.30
2019-05-25T07:36:42.804Z,99820.05
2019-05-25T07:39:15.486Z,99818.48
2019-05-25T07:41:48.189Z,99823.22
2019-05-25T07:44:20.614Z,99820.36
